Time;durP1;ratioP1;P1;durP2;ratioP2;P2;SDS_P1;SDS_P2;PMS_P1;PMS_P2;Temp;Humidity;BMP_temperature;BMP_pressure;BME280_temperature;BME280_humidity;BME280_pressure;Samples;Min_cycle;Max_cycle;Signal;HPM_P1;HPM_P2
2022/08/12 00:45:04;;;;;;;12.60;8.15;;;;;;;;;;5030904;28;20053;-65
2022/08/12 00:47:30;;;;;;;12.60;7.78;;;;;;;;;;5030238;28;20045;-65
2022/08/12 00:49:56;;;;;;;10.45;8.05;;;;;;;;;;5029590;28;20045;-65
2022/08/12 00:52:23;;;;;;;12.07;7.90;;;;;;;;;;5031064;28;20487;-65
2022/08/12 00:54:50;;;;;;;13.75;8.52;;;;;;;;;;5030549;28;20076;-65
2022/08/12 00:57:23;;;;;;;13.63;8.20;;;;;;;;;;5026470;28;20056;-65
2022/08/12 00:59:51;;;;;;;10.40;7.60;;;;;;;;;;5030483;28;20172;-65
2022/08/12 01:02:30;;;;;;;12.00;7.80;;;;;;;;;;5030350;28;20045;-65
2022/08/12 01:13:15;;;;;;;10.35;7.38;;;;;;;;;;5026683;28;20450;-66
2022/08/12 01:15:41;;;;;;;12.85;8.07;;;;;;;;;;5028534;28;20045;-66
2022/08/12 01:18:07;;;;;;;12.65;7.50;;;;;;;;;;5031408;28;20059;-66
2022/08/12 01:20:40;;;;;;;10.25;7.03;;;;;;;;;;5012554;28;20041;-66
2022/08/12 01:23:24;;;;;;;10.50;7.57;;;;;;;;;;5036097;28;20503;-65
2022/08/12 01:25:52;;;;;;;13.88;8.82;;;;;;;;;;5050852;28;20037;-65
2022/08/12 01:28:19;;;;;;;12.60;9.48;;;;;;;;;;5012101;28;20037;-65
2022/08/12 01:30:48;;;;;;;12.23;9.63;;;;;;;;;;5004428;28;20037;-65
2022/08/12 01:33:19;;;;;;;12.60;9.55;;;18.40;99.90;;;;;;5051706;28;20102;-65
2022/08/12 01:35:53;;;;;;;12.18;8.85;;;18.30;99.90;;;;;;5053243;28;20041;-65
2022/08/12 01:38:21;;;;;;;11.63;8.63;;;18.30;99.90;;;;;;5053491;28;20041;-65
2022/08/12 01:40:50;;;;;;;12.80;9.88;;;18.20;99.90;;;;;;5054349;28;20498;-65
2022/08/12 01:43:20;;;;;;;13.80;9.27;;;17.80;99.90;;;;;;5036195;28;20052;-65
2022/08/12 01:46:25;;;;;;;11.32;8.80;;;18.30;99.90;;;;;;5012547;28;20041;-65
2022/08/12 01:49:09;;;;;;;10.95;8.68;;;18.30;99.90;;;;;;5033609;28;20036;-65
2022/08/12 01:51:41;;;;;;;11.43;9.45;;;18.20;99.90;;;;;;5059429;28;20040;-65
2022/08/12 01:54:18;;;;;;;13.52;9.05;;;18.50;99.90;;;;;;5020362;28;20049;-65
2022/08/12 01:56:48;;;;;;;11.77;9.00;;;;;;;;;;5053556;28;20077;-65
2022/08/12 02:02:09;;;;;;;11.02;9.63;;;17.90;99.90;;;;;;5053450;28;20060;-65
2022/08/12 02:13:40;;;;;;;13.43;9.18;;;18.10;99.90;;;;;;5032922;28;20378;-65
2022/08/12 02:16:39;;;;;;;13.65;10.75;;;17.80;99.90;;;;;;5035780;28;20076;-65
2022/08/12 02:19:39;;;;;;;12.77;10.93;;;18.10;99.90;;;;;;4997210;28;20057;-65
2022/08/12 02:22:23;;;;;;;14.15;12.20;;;17.70;99.90;;;;;;5035788;28;20494;-65
2022/08/12 02:24:52;;;;;;;13.55;10.27;;;18.30;99.90;;;;;;5035118;28;20053;-65
2022/08/12 02:27:20;;;;;;;14.75;12.35;;;18.10;99.90;;;;;;5052402;28;20052;-65
2022/08/12 02:29:47;;;;;;;16.42;11.40;;;17.60;99.90;;;;;;5053321;28;20048;-65
2022/08/12 02:32:13;;;;;;;14.30;11.35;;;17.90;99.90;;;;;;5053741;28;20079;-65
2022/08/12 02:34:42;;;;;;;15.65;12.32;;;17.80;99.90;;;;;;5028687;28;20397;-65
2022/08/12 02:37:14;;;;;;;15.77;11.73;;;17.90;99.90;;;;;;5035573;28;20497;-65
2022/08/12 02:39:47;;;;;;;16.48;11.70;;;17.90;99.90;;;;;;5035487;28;20040;-65
2022/08/12 02:42:14;;;;;;;17.00;12.77;;;17.90;99.90;;;;;;5029802;28;20041;-65
2022/08/12 02:44:42;;;;;;;16.05;12.98;;;;;;;;;;5034093;28;20045;-65
2022/08/12 02:47:09;;;;;;;15.55;13.27;;;17.70;99.90;;;;;;5033904;28;20036;-65
2022/08/12 02:49:40;;;;;;;17.10;14.20;;;18.70;99.90;;;;;;5035465;28;20493;-65
2022/08/12 02:52:07;;;;;;;16.55;12.88;;;17.90;99.90;;;;;;5031581;28;20104;-65
2022/08/12 02:54:34;;;;;;;16.13;14.02;;;17.60;99.90;;;;;;5052182;28;20551;-65
2022/08/12 02:57:00;;;;;;;16.20;13.80;;;18.20;99.90;;;;;;5052734;28;20090;-65
2022/08/12 02:59:27;;;;;;;15.93;12.02;;;17.60;99.90;;;;;;5035099;28;20037;-65
2022/08/12 03:02:04;;;;;;;17.35;12.48;;;18.10;99.90;;;;;;5050641;28;20029;-65
2022/08/12 03:04:35;;;;;;;17.92;14.57;;;18.10;99.90;;;;;;5053319;28;20040;-65
2022/08/12 03:07:13;;;;;;;18.15;13.95;;;17.70;99.90;;;;;;5034752;28;20394;-65
2022/08/12 03:09:51;;;;;;;14.30;11.88;;;17.90;99.90;;;;;;5052037;28;20087;-65
2022/08/12 03:12:19;;;;;;;14.90;13.30;;;17.80;99.90;;;;;;5052572;28;20494;-65
2022/08/12 03:14:46;;;;;;;15.02;12.95;;;17.90;99.90;;;;;;5034316;28;20036;-65
2022/08/12 03:17:28;;;;;;;15.48;12.23;;;18.10;99.90;;;;;;5033790;28;20186;-65
2022/08/12 03:19:56;;;;;;;16.83;14.20;;;18.00;99.90;;;;;;5034997;28;20037;-65
2022/08/12 03:22:23;;;;;;;17.02;13.88;;;18.30;99.90;;;;;;5051657;28;20045;-65
2022/08/12 03:24:49;;;;;;;16.27;12.43;;;18.20;99.90;;;;;;5035007;28;20577;-65
2022/08/12 03:27:16;;;;;;;20.38;12.65;;;17.40;99.90;;;;;;5034874;28;20037;-65
2022/08/12 03:29:46;;;;;;;14.25;11.48;;;17.90;99.90;;;;;;5033965;28;20599;-65
2022/08/12 03:32:13;;;;;;;18.67;13.15;;;17.80;99.90;;;;;;5034579;28;20041;-65
2022/08/12 03:34:40;;;;;;;17.58;12.73;;;17.80;99.90;;;;;;5052584;28;20112;-65
2022/08/12 03:37:07;;;;;;;15.05;12.23;;;17.80;99.90;;;;;;5014563;28;20041;-65
2022/08/12 03:42:24;;;;;;;16.55;12.45;;;18.10;99.90;;;;;;5029878;28;20049;-65
2022/08/12 04:01:51;;;;;;;12.43;10.20;;;17.80;99.90;;;;;;5039914;28;20139;-65
2022/08/12 04:04:17;;;;;;;13.88;9.68;;;17.90;99.90;;;;;;5047461;28;20041;-65
2022/08/12 04:06:44;;;;;;;12.82;9.65;;;17.80;99.90;;;;;;5043247;28;20474;-65
2022/08/12 04:09:11;;;;;;;12.50;10.27;;;17.80;99.90;;;;;;5030661;28;20045;-65
2022/08/12 04:14:26;;;;;;;14.18;9.00;;;18.00;99.90;;;;;;5034241;28;20134;-64
2022/08/12 04:16:52;;;;;;;15.38;9.27;;;17.60;99.90;;;;;;5033983;28;20548;-65
2022/08/12 04:19:20;;;;;;;12.60;9.40;;;17.80;99.90;;;;;;5051025;28;20040;-65
2022/08/12 04:21:46;;;;;;;9.68;6.90;;;17.90;99.90;;;;;;5050951;28;20120;-65
2022/08/12 04:24:12;;;;;;;12.40;8.38;;;17.90;99.90;;;;;;5034127;28;20131;-65
2022/08/12 04:26:38;;;;;;;9.85;7.25;;;17.80;99.90;;;;;;5032890;28;20037;-65
2022/08/12 04:29:05;;;;;;;9.35;6.97;;;17.80;99.90;;;;;;5051234;28;20115;-65
2022/08/12 04:31:30;;;;;;;8.75;6.43;;;17.50;99.90;;;;;;5031691;28;20053;-65
2022/08/12 04:33:57;;;;;;;10.65;7.75;;;17.50;99.90;;;;;;5033089;28;20060;-65
2022/08/12 04:36:23;;;;;;;11.13;7.07;;;17.90;99.90;;;;;;5051390;28;20040;-64
2022/08/12 04:38:49;;;;;;;12.32;8.13;;;17.90;99.90;;;;;;5034035;28;20551;-64
2022/08/12 04:41:17;;;;;;;9.07;6.25;;;;;;;;;;5051057;28;20385;-65
2022/08/12 04:43:43;;;;;;;9.55;6.07;;;18.00;99.90;;;;;;5033675;28;20049;-65
2022/08/12 04:46:10;;;;;;;9.63;6.68;;;18.10;99.90;;;;;;5051306;28;20090;-65
2022/08/12 04:48:36;;;;;;;10.02;6.45;;;17.50;99.90;;;;;;5015433;28;20037;-65
2022/08/12 04:51:02;;;;;;;8.98;6.38;;;;;;;;;;5051019;28;20069;-65
2022/08/12 04:53:29;;;;;;;10.20;6.80;;;17.90;99.90;;;;;;5051282;28;20041;-65
2022/08/12 04:55:56;;;;;;;12.35;6.85;;;17.80;99.90;;;;;;5032665;28;20033;-65
2022/08/12 04:58:22;;;;;;;10.85;5.90;;;;;;;;;;5051723;28;20041;-65
2022/08/12 05:00:48;;;;;;;12.48;7.57;;;17.60;99.90;;;;;;5032465;28;20041;-65
2022/08/12 05:03:14;;;;;;;9.27;6.28;;;17.70;99.90;;;;;;5051797;28;20086;-64
2022/08/12 05:05:41;;;;;;;9.77;6.85;;;17.70;99.90;;;;;;5050893;28;20512;-65
2022/08/12 05:08:15;;;;;;;10.13;6.47;;;17.80;99.90;;;;;;5030205;28;20112;-64
2022/08/12 05:10:42;;;;;;;10.57;5.90;;;17.90;99.90;;;;;;5036365;28;20036;-65
2022/08/12 05:13:29;;;;;;;12.30;6.40;;;17.40;99.90;;;;;;5037195;28;20049;-65
2022/08/12 05:15:55;;;;;;;12.27;6.55;;;18.20;99.90;;;;;;5054102;28;20033;-65
2022/08/12 05:18:20;;;;;;;9.13;6.15;;;17.90;99.90;;;;;;5055171;28;20246;-65
2022/08/12 05:20:47;;;;;;;8.80;5.18;;;;;;;;;;5036583;28;20167;-65
2022/08/12 05:23:19;;;;;;;10.77;5.50;;;18.00;99.90;;;;;;5036339;28;20206;-65
2022/08/12 05:25:48;;;;;;;10.25;6.20;;;18.10;99.90;;;;;;5054404;28;20507;-65
2022/08/12 05:28:15;;;;;;;8.80;5.15;;;18.20;99.90;;;;;;5054639;28;20040;-65
2022/08/12 05:30:42;;;;;;;8.65;5.18;;;18.60;99.90;;;;;;5035921;28;20040;-65
2022/08/12 05:33:08;;;;;;;13.40;5.47;;;18.30;99.90;;;;;;5019981;28;20478;-65
2022/08/12 05:35:40;;;;;;;8.43;5.50;;;18.50;99.90;;;;;;5054109;28;20059;-65
2022/08/12 05:40:51;;;;;;;12.35;5.57;;;18.90;99.90;;;;;;5045487;28;20049;-64
2022/08/12 05:43:17;;;;;;;9.95;6.07;;;18.90;99.90;;;;;;5035919;28;20044;-64
2022/08/12 05:45:44;;;;;;;8.10;4.97;;;18.90;99.90;;;;;;5036278;28;20045;-65
2022/08/12 05:48:10;;;;;;;7.30;4.80;;;18.80;99.90;;;;;;5055157;28;20041;-65
2022/08/12 05:50:36;;;;;;;10.00;4.57;;;19.00;99.90;;;;;;5030123;28;20056;-65
2022/08/12 05:53:02;;;;;;;10.02;4.57;;;19.20;99.90;;;;;;5030611;28;20124;-66
2022/08/12 05:55:30;;;;;;;8.23;5.55;;;19.00;99.90;;;;;;5032819;28;20087;-66
2022/08/12 05:57:56;;;;;;;7.85;4.45;;;19.20;99.90;;;;;;5041605;28;20162;-64
2022/08/12 06:00:27;;;;;;;7.85;5.40;;;19.50;99.90;;;;;;5031203;28;20060;-65
2022/08/12 06:02:59;;;;;;;7.45;4.75;;;19.60;99.90;;;;;;5033484;28;20053;-64
2022/08/12 06:05:36;;;;;;;8.95;4.65;;;19.50;99.90;;;;;;5033395;28;20578;-65
2022/08/12 06:08:06;;;;;;;6.25;3.95;;;19.50;99.90;;;;;;5017946;28;20048;-66
2022/08/12 06:10:34;;;;;;;8.18;4.43;;;19.50;99.90;;;;;;5033845;28;20494;-66
2022/08/12 06:13:05;;;;;;;7.80;4.25;;;19.60;99.90;;;;;;5051271;28;20041;-66
2022/08/12 06:15:33;;;;;;;10.30;4.90;;;19.60;99.90;;;;;;5050717;28;20092;-65
2022/08/12 06:18:08;;;;;;;8.55;5.00;;;19.90;99.90;;;;;;5033832;28;20052;-67
2022/08/12 06:20:38;;;;;;;10.25;4.80;;;;;;;;;;5016562;28;20084;-65
2022/08/12 06:23:04;;;;;;;16.50;5.50;;;20.00;99.90;;;;;;5033406;28;20049;-66
2022/08/12 06:25:30;;;;;;;10.05;4.63;;;20.00;99.90;;;;;;5051487;28;20051;-66
2022/08/12 06:27:57;;;;;;;9.07;4.28;;;20.20;99.90;;;;;;5017633;28;20091;-65
2022/08/12 06:30:24;;;;;;;7.45;4.72;;;20.30;99.90;;;;;;5051891;28;20371;-65
2022/08/12 06:32:51;;;;;;;8.07;4.00;;;;;;;;;;5049814;28;20053;-66
2022/08/12 06:35:18;;;;;;;9.93;4.60;;;20.40;99.90;;;;;;5033649;28;20036;-66
2022/08/12 06:37:46;;;;;;;8.20;4.82;;;20.30;99.90;;;;;;5019713;28;20041;-66
2022/08/12 06:40:13;;;;;;;7.60;4.05;;;20.60;99.90;;;;;;5044950;28;20037;-66
2022/08/12 06:42:50;;;;;;;10.30;5.18;;;18.50;99.90;;;;;;5049715;28;20055;-66
2022/08/12 06:45:20;;;;;;;9.35;3.67;;;20.90;99.90;;;;;;5032399;28;20044;-66
2022/08/12 06:47:47;;;;;;;8.07;4.00;;;20.60;99.90;;;;;;5031848;28;20033;-66
2022/08/12 06:50:15;;;;;;;7.25;4.68;;;20.90;99.90;;;;;;5051350;28;20051;-66
2022/08/12 06:52:44;;;;;;;6.78;3.97;;;21.10;99.90;;;;;;5050996;28;20098;-66
2022/08/12 06:55:19;;;;;;;7.95;4.20;;;21.00;99.90;;;;;;5050589;28;20120;-66
2022/08/12 06:57:53;;;;;;;12.90;4.28;;;21.10;99.90;;;;;;5050339;28;20051;-66
2022/08/12 07:00:25;;;;;;;6.80;4.00;;;21.10;99.90;;;;;;5032356;28;20040;-66
2022/08/12 07:02:54;;;;;;;10.10;4.90;;;21.30;99.90;;;;;;5032642;28;20513;-66
2022/08/12 07:05:23;;;;;;;7.22;3.95;;;;;;;;;;5035086;28;20051;-66
2022/08/12 07:07:51;;;;;;;6.90;4.00;;;21.40;99.90;;;;;;5049485;28;20052;-66
2022/08/12 07:10:18;;;;;;;8.43;3.58;;;21.50;99.90;;;;;;5031917;28;20048;-66
2022/08/12 07:12:44;;;;;;;10.15;3.53;;;;;;;;;;5031785;28;20049;-66
2022/08/12 07:15:10;;;;;;;6.82;3.35;;;21.70;99.90;;;;;;5028869;28;20049;-66
2022/08/12 07:17:40;;;;;;;8.80;4.30;;;21.80;99.90;;;;;;5031659;28;20045;-67
2022/08/12 07:20:08;;;;;;;7.10;4.38;;;21.80;99.90;;;;;;5031458;28;20033;-68
2022/08/12 07:22:34;;;;;;;6.60;3.97;;;22.50;99.90;;;;;;5048261;28;20063;-67
2022/08/12 07:27:45;;;;;;;8.27;3.78;;;;;;;;;;5036484;28;20052;-68
2022/08/12 07:30:11;;;;;;;8.30;4.00;;;22.30;99.90;;;;;;5049764;28;20048;-68
2022/08/12 07:32:37;;;;;;;8.85;3.33;;;;;;;;;;5050525;28;20036;-66
2022/08/12 07:35:03;;;;;;;9.75;3.78;;;;;;;;;;5031830;28;20045;-66
2022/08/12 07:37:29;;;;;;;6.97;3.58;;;;;;;;;;5026555;28;20107;-66
2022/08/12 07:39:57;;;;;;;6.57;3.40;;;;;;;;;;5025430;28;20038;-66
2022/08/12 07:42:22;;;;;;;8.02;3.47;;;22.50;99.90;;;;;;5041596;28;20462;-66
2022/08/12 07:44:49;;;;;;;8.05;3.45;;;;;;;;;;5047491;28;20041;-66
2022/08/12 07:47:17;;;;;;;8.07;3.85;;;;;;;;;;5049303;28;20398;-66
2022/08/12 07:49:43;;;;;;;6.70;3.38;;;;;;;;;;5048052;28;20037;-66
2022/08/12 07:52:09;;;;;;;8.02;3.78;;;;;;;;;;5049603;28;20040;-65
2022/08/12 07:54:35;;;;;;;7.43;3.75;;;;;;;;;;5013734;28;20490;-66
2022/08/12 07:57:03;;;;;;;7.93;3.53;;;;;;;;;;5032120;28;20136;-66
2022/08/12 07:59:33;;;;;;;9.27;3.95;;;;;;;;;;5051990;28;20123;-66
2022/08/12 08:01:59;;;;;;;7.82;3.53;;;;;;;;;;5032812;28;20113;-66
2022/08/12 08:07:09;;;;;;;5.95;3.53;;;23.20;99.90;;;;;;5046899;28;20052;-64
2022/08/12 08:09:38;;;;;;;7.50;4.20;;;;;;;;;;5033965;28;20041;-66
2022/08/12 08:14:51;;;;;;;6.78;3.70;;;23.50;99.90;;;;;;5052284;28;20397;-68
2022/08/12 08:17:17;;;;;;;7.20;3.85;;;23.60;99.90;;;;;;5034438;28;20094;-68
2022/08/12 08:19:43;;;;;;;8.82;3.65;;;23.60;99.90;;;;;;5033096;28;20460;-69
2022/08/12 08:22:09;;;;;;;7.53;3.78;;;23.90;99.90;;;;;;5034464;28;20045;-69
2022/08/12 08:24:35;;;;;;;7.57;3.70;;;24.10;99.90;;;;;;5034130;28;20095;-69
2022/08/12 08:27:03;;;;;;;6.00;3.90;;;;;;;;;;5051450;28;20036;-69
2022/08/12 08:29:34;;;;;;;7.88;4.22;;;;;;;;;;5051660;28;20041;-69
2022/08/12 08:32:03;;;;;;;7.55;4.22;;;;;;;;;;5033277;28;20049;-69
2022/08/12 08:34:30;;;;;;;7.93;3.97;;;;;;;;;;5051975;28;20085;-69
2022/08/12 08:36:56;;;;;;;9.65;3.80;;;;;;;;;;5033959;28;20048;-69
2022/08/12 08:39:26;;;;;;;6.95;3.67;;;;;;;;;;5051196;28;20444;-69
2022/08/12 08:44:36;;;;;;;;;;;;;;;;;;5040521;28;20053;-69
2022/08/12 08:47:04;;;;;;;7.65;3.67;;;;;;;;;;5039871;28;19925;-69
2022/08/12 08:49:30;;;;;;;6.35;3.60;;;;;;;;;;5058435;28;20076;-69
2022/08/12 08:51:56;;;;;;;7.82;3.28;;;;;;;;;;5040673;28;20045;-68
2022/08/12 08:54:23;;;;;;;6.50;3.67;;;24.70;99.90;;;;;;5057647;28;20040;-68
2022/08/12 08:56:49;;;;;;;6.35;3.33;;;24.90;99.90;;;;;;5058162;28;20041;-68
2022/08/12 08:59:18;;;;;;;7.50;2.75;;;24.80;99.90;;;;;;5040409;28;20056;-69
2022/08/12 09:01:45;;;;;;;5.78;2.53;;;;;;;;;;5039857;28;20041;-69
2022/08/12 09:04:11;;;;;;;6.68;2.90;;;;;;;;;;5058030;28;20041;-69
2022/08/12 09:06:41;;;;;;;4.90;2.67;;;25.30;99.90;;;;;;5058319;28;20040;-69
2022/08/12 09:09:10;;;;;;;5.97;3.08;;;25.30;99.90;;;;;;5056711;28;20036;-70
2022/08/12 09:14:22;;;;;;;7.53;2.60;;;;;;;;;;5039449;28;20091;-69
2022/08/12 09:16:49;;;;;;;6.63;2.63;;;25.60;99.90;;;;;;5057698;28;20379;-69
2022/08/12 09:19:16;;;;;;;5.88;2.42;;;;;;;;;;5057088;28;20051;-69
2022/08/12 09:21:47;;;;;;;5.20;2.92;;;25.70;99.90;;;;;;5035346;28;20083;-69
2022/08/12 09:24:18;;;;;;;10.80;3.13;;;25.80;99.90;;;;;;5002230;28;20131;-69
2022/08/12 09:26:47;;;;;;;7.63;2.78;;;;;;;;;;5025893;28;20025;-69
2022/08/12 09:29:22;;;;;;;4.88;2.70;;;;;;;;;;5039474;28;20048;-70
2022/08/12 09:31:55;;;;;;;6.43;3.22;;;26.00;99.90;;;;;;5024746;28;20057;-70
2022/08/12 09:34:21;;;;;;;4.90;2.42;;;;;;;;;;5039129;28;20128;-67
2022/08/12 09:36:47;;;;;;;6.45;2.45;;;26.60;99.90;;;;;;5037469;28;20486;-68
2022/08/12 09:39:13;;;;;;;6.13;3.33;;;;;;;;;;5057891;28;20063;-69
2022/08/12 09:41:40;;;;;;;4.20;2.30;;;;;;;;;;5039449;28;20124;-69
2022/08/12 09:46:51;;;;;;;5.85;2.75;;;26.50;90.90;;;;;;5057049;28;20106;-71
2022/08/12 09:49:17;;;;;;;6.90;3.00;;;26.80;95.20;;;;;;5039160;28;20032;-69
2022/08/12 09:51:45;;;;;;;5.30;2.60;;;26.70;91.00;;;;;;5057505;28;20371;-70
2022/08/12 09:54:11;;;;;;;5.57;2.80;;;27.00;99.90;;;;;;5038421;28;20490;-71
2022/08/12 09:56:41;;;;;;;7.38;2.42;;;26.90;99.90;;;;;;5012464;28;20060;-69
2022/08/12 09:59:08;;;;;;;6.07;2.75;;;27.30;99.90;;;;;;5016662;28;20084;-68
2022/08/12 10:01:38;;;;;;;5.05;2.92;;;;;;;;;;5036218;28;20098;-69
2022/08/12 10:04:10;;;;;;;11.43;3.10;;;;;;;;;;5031189;28;20128;-69
2022/08/12 10:06:36;;;;;;;5.10;2.70;;;27.20;88.10;;;;;;5033224;28;20044;-69
2022/08/12 10:09:06;;;;;;;7.53;2.28;;;26.90;90.40;;;;;;5033097;28;20048;-69
2022/08/12 10:14:17;;;;;;;5.35;2.30;;;27.30;72.40;;;;;;5016930;28;20131;-69
2022/08/12 10:16:43;;;;;;;6.20;2.90;;;27.40;71.70;;;;;;5034245;28;20121;-69
2022/08/12 10:19:09;;;;;;;7.38;2.90;;;27.40;77.60;;;;;;5044592;28;20064;-69
2022/08/12 10:21:37;;;;;;;5.72;2.65;;;27.40;74.80;;;;;;5036329;28;20045;-69
2022/08/12 10:24:07;;;;;;;5.90;2.15;;;;;;;;;;5035487;28;20456;-70
2022/08/12 10:29:39;;;;;;;7.45;2.95;;;;;;;;;;5013806;28;20103;-69
2022/08/12 10:32:06;;;;;;;6.43;2.75;;;27.70;92.00;;;;;;5013504;28;20076;-69
2022/08/12 10:34:33;;;;;;;5.13;2.20;;;;;;;;;;5013612;28;20068;-68
2022/08/12 10:37:00;;;;;;;6.53;2.90;;;27.80;67.90;;;;;;5013213;28;20065;-68
2022/08/12 10:39:31;;;;;;;8.57;2.55;;;27.80;68.40;;;;;;5030717;28;20056;-69
2022/08/12 10:44:42;;;;;;;6.72;2.78;;;;;;;;;;5024808;28;20573;-69
2022/08/12 10:47:08;;;;;;;4.57;2.28;;;;;;;;;;5049905;28;20437;-70
2022/08/12 10:49:35;;;;;;;7.75;2.83;;;;;;;;;;5050811;28;20479;-69
2022/08/12 10:52:01;;;;;;;7.32;2.95;;;;;;;;;;5050926;28;20068;-69
2022/08/12 10:54:28;;;;;;;6.50;2.50;;;;;;;;;;5015292;28;20044;-69
2022/08/12 10:56:56;;;;;;;5.38;2.70;;;28.10;87.40;;;;;;5032834;28;20080;-68
2022/08/12 10:59:23;;;;;;;7.65;2.58;;;28.10;64.90;;;;;;5033061;28;20052;-68
2022/08/12 11:01:52;;;;;;;7.90;2.75;;;28.10;62.80;;;;;;5047094;28;20124;-68
2022/08/12 11:04:18;;;;;;;11.90;2.95;;;28.10;62.60;;;;;;5042845;28;20123;-68
2022/08/12 11:06:49;;;;;;;4.70;2.50;;;28.10;63.30;;;;;;5031399;28;20442;-69
2022/08/12 11:09:36;;;;;;;4.38;2.20;;;;;;;;;;5032587;28;20092;-69
2022/08/12 11:12:05;;;;;;;4.45;2.58;;;28.40;95.60;;;;;;5015517;28;20045;-69
2022/08/12 11:14:32;;;;;;;7.25;3.03;;;28.50;78.90;;;;;;5031346;28;20044;-69
2022/08/12 11:17:05;;;;;;;4.75;2.60;;;28.40;72.50;;;;;;5032493;28;20128;-69
2022/08/12 11:19:33;;;;;;;5.88;2.60;;;28.50;79.90;;;;;;5050067;28;20375;-69
2022/08/12 11:21:59;;;;;;;6.47;2.60;;;28.40;85.30;;;;;;5049641;28;20048;-70
2022/08/12 11:24:25;;;;;;;4.63;2.03;;;28.50;96.40;;;;;;5029010;28;20064;-69
2022/08/12 11:26:53;;;;;;;6.07;3.03;;;28.60;97.00;;;;;;5029848;28;20052;-68
2022/08/12 11:29:20;;;;;;;7.00;2.85;;;28.60;98.20;;;;;;5043102;28;20473;-72
2022/08/12 11:31:48;;;;;;;6.55;2.78;;;;;;;;;;5036296;28;20490;-74
2022/08/12 11:34:18;;;;;;;6.32;2.60;;;;;;;;;;5034370;28;20506;-69
2022/08/12 11:36:53;;;;;;;5.72;2.40;;;;;;;;;;5050880;28;20123;-72
2022/08/12 11:39:19;;;;;;;7.45;2.90;;;;;;;;;;5034833;28;20085;-71
2022/08/12 11:41:45;;;;;;;5.75;2.90;;;;;;;;;;5052169;28;20045;-74
2022/08/12 11:44:11;;;;;;;9.73;2.90;;;;;;;;;;5052696;28;20083;-75
2022/08/12 11:46:38;;;;;;;5.80;2.72;;;;;;;;;;5052995;28;20072;-75
2022/08/12 11:49:32;;;;;;;6.43;3.00;;;;;;;;;;5050993;28;20052;-75
2022/08/12 11:52:02;;;;;;;4.72;2.72;;;;;;;;;;5007614;28;20042;-75
2022/08/12 11:54:33;;;;;;;6.72;3.17;;;;;;;;;;5050877;28;20047;-74
2022/08/12 11:57:00;;;;;;;5.95;2.55;;;;;;;;;;5050031;28;20037;-76
2022/08/12 11:59:26;;;;;;;9.27;3.17;;;;;;;;;;5054660;28;20402;-75
2022/08/12 12:01:52;;;;;;;6.47;2.72;;;;;;;;;;5072488;28;20040;-75
2022/08/12 12:04:19;;;;;;;8.40;2.80;;;;;;;;;;5072217;28;20543;-75
2022/08/12 12:06:45;;;;;;;7.10;3.30;;;;;;;;;;5060236;28;20094;-77
2022/08/12 12:09:11;;;;;;;7.15;2.95;;;;;;;;;;5052584;28;20052;-80
2022/08/12 12:11:38;;;;;;;5.30;2.97;;;;;;;;;;5034361;28;20047;-79
2022/08/12 12:14:07;;;;;;;7.55;2.63;;;;;;;;;;5018197;28;20082;-77
2022/08/12 12:16:33;;;;;;;5.32;2.92;;;;;;;;;;5018078;28;20091;-77
2022/08/12 12:19:00;;;;;;;6.50;2.88;;;;;;;;;;5033368;28;20055;-77
2022/08/12 12:21:26;;;;;;;9.15;3.28;;;;;;;;;;5032999;28;20052;-77
2022/08/12 12:23:53;;;;;;;8.70;3.50;;;;;;;;;;5052929;28;20056;-74
2022/08/12 12:26:19;;;;;;;6.55;3.00;;;;;;;;;;5051801;28;20049;-73
2022/08/12 12:28:46;;;;;;;4.53;2.50;;;;;;;;;;5024340;28;20043;-78
2022/08/12 12:31:12;;;;;;;7.13;3.17;;;;;;;;;;5051805;28;20120;-78
2022/08/12 12:33:39;;;;;;;6.43;2.80;;;;;;;;;;5051588;28;20512;-79
2022/08/12 12:36:09;;;;;;;8.88;3.40;;;;;;;;;;5018026;28;20049;-80
2022/08/12 12:38:35;;;;;;;6.13;2.90;;;;;;;;;;5013880;28;20041;-80
2022/08/12 12:41:01;;;;;;;6.25;3.10;;;;;;;;;;5032148;28;20041;-79
2022/08/12 12:43:28;;;;;;;8.38;3.00;;;;;;;;;;5041692;28;20051;-77
2022/08/12 12:45:55;;;;;;;10.30;3.03;;;;;;;;;;5051427;28;20095;-79
2022/08/12 12:48:21;;;;;;;6.28;2.72;;;;;;;;;;5033273;28;20049;-80
2022/08/12 12:53:40;;;;;;;7.25;3.30;;;;;;;;;;5033223;28;20059;-79
2022/08/12 12:56:11;;;;;;;6.28;3.20;;;;;;;;;;5032480;28;20783;-80
2022/08/12 12:58:38;;;;;;;6.38;2.92;;;;;;;;;;5016566;28;20041;-77
2022/08/12 13:01:05;;;;;;;4.60;2.75;;;;;;;;;;5032234;28;20100;-77
2022/08/12 13:03:34;;;;;;;5.85;2.70;;;;;;;;;;5032767;28;20048;-75
2022/08/12 13:09:05;;;;;;;;;;;;;;;;;;5046355;28;20068;-76
2022/08/12 13:11:33;;;;;;;7.50;2.83;;;;;;;;;;5048262;28;19920;-76
2022/08/12 13:14:00;;;;;;;6.63;3.28;;;29.30;99.90;;;;;;5012503;28;20040;-78
2022/08/12 13:16:42;;;;;;;8.05;2.83;;;29.20;97.00;;;;;;5030042;28;20088;-77
2022/08/12 13:19:08;;;;;;;5.53;2.45;;;29.20;96.50;;;;;;5030806;28;20075;-76
2022/08/12 13:22:14;;;;;;;5.55;2.50;;;29.20;97.20;;;;;;5060075;28;20040;-67
2022/08/12 13:24:20;;;;;;;7.80;3.65;;;29.20;97.60;;;;;;5068339;28;20410;-66
2022/08/12 13:26:46;;;;;;;5.75;2.70;;;29.20;98.20;;;;;;5034097;28;20043;-66
2022/08/12 13:29:13;;;;;;;6.28;2.90;;;29.30;98.50;;;;;;5015485;28;20044;-66
2022/08/12 13:31:47;;;;;;;6.45;2.65;;;29.10;96.40;;;;;;5034442;28;20056;-66
2022/08/12 13:34:16;;;;;;;5.30;2.88;;;29.10;97.70;;;;;;5032509;28;20248;-66
2022/08/12 13:36:44;;;;;;;10.45;3.00;;;29.10;97.90;;;;;;5034001;28;20048;-66
2022/08/12 13:39:09;;;;;;;5.82;2.55;;;29.10;98.80;;;;;;5052348;28;20047;-65
2022/08/12 13:41:35;;;;;;;6.25;3.10;;;29.00;98.60;;;;;;5030157;28;20053;-65
2022/08/12 13:44:03;;;;;;;6.28;2.60;;;29.00;99.10;;;;;;5034155;28;20057;-66
2022/08/12 13:46:29;;;;;;;6.30;2.75;;;29.10;99.10;;;;;;4998988;28;20057;-65
2022/08/12 13:48:58;;;;;;;8.38;2.72;;;29.00;99.20;;;;;;5035551;28;20394;-66
2022/08/12 13:51:24;;;;;;;5.50;2.70;;;29.00;98.40;;;;;;5054019;28;20045;-66
2022/08/12 13:53:50;;;;;;;4.63;2.53;;;29.00;99.50;;;;;;5025379;28;20044;-66
2022/08/12 13:56:17;;;;;;;5.38;2.45;;;29.00;99.20;;;;;;5015095;28;20064;-66
2022/08/12 13:58:47;;;;;;;6.38;2.50;;;29.00;98.90;;;;;;5044553;28;20129;-66
2022/08/12 14:01:14;;;;;;;6.90;2.47;;;29.10;99.10;;;;;;5048019;28;20528;-66
2022/08/12 14:03:40;;;;;;;5.78;2.80;;;29.20;98.60;;;;;;5015420;28;20045;-65
2022/08/12 14:06:06;;;;;;;7.93;2.92;;;29.20;97.80;;;;;;5051055;28;20045;-65
2022/08/12 14:08:31;;;;;;;5.38;2.17;;;29.30;97.80;;;;;;5033273;28;20033;-66
2022/08/12 14:10:57;;;;;;;6.72;2.40;;;29.30;97.60;;;;;;5028532;28;20041;-66
2022/08/12 14:13:26;;;;;;;8.20;2.90;;;29.30;97.50;;;;;;5031798;28;20124;-66
2022/08/12 14:15:58;;;;;;;7.68;2.60;;;29.20;97.20;;;;;;4998767;28;20506;-67
2022/08/12 14:18:32;;;;;;;6.40;2.70;;;29.40;96.60;;;;;;5016290;28;20109;-76
2022/08/12 14:21:03;;;;;;;6.32;2.58;;;29.40;94.80;;;;;;5051599;28;20252;-76
2022/08/12 14:23:31;;;;;;;6.40;2.75;;;29.30;96.90;;;;;;5050662;28;20108;-77
2022/08/12 14:25:59;;;;;;;9.20;3.47;;;29.40;96.60;;;;;;5033713;28;20098;-77
2022/08/12 14:28:27;;;;;;;8.48;2.78;;;29.50;96.80;;;;;;5033606;28;20040;-78
2022/08/12 14:30:59;;;;;;;7.63;2.95;;;29.50;96.90;;;;;;5032419;28;20473;-77
2022/08/12 14:33:29;;;;;;;5.53;2.78;;;;;;;;;;5051075;28;20055;-77
2022/08/12 14:35:56;;;;;;;6.30;2.63;;;29.70;99.90;;;;;;5032102;28;20055;-76
2022/08/12 14:38:28;;;;;;;6.10;2.70;;;29.90;99.60;;;;;;5015601;28;20071;-76
2022/08/12 14:41:00;;;;;;;4.47;2.40;;;29.80;99.10;;;;;;5031940;28;20146;-77
2022/08/12 14:43:32;;;;;;;5.32;2.63;;;29.90;99.90;;;;;;5032429;28;20399;-77
2022/08/12 14:46:14;;;;;;;4.38;2.33;;;29.70;99.50;;;;;;5026255;28;20048;-77
2022/08/12 14:48:45;;;;;;;8.52;3.30;;;;;;;;;;5050415;28;20087;-77
2022/08/12 14:51:19;;;;;;;5.30;2.55;;;;;;;;;;5032681;28;20048;-76
2022/08/12 14:53:45;;;;;;;5.78;2.67;;;;;;;;;;5031712;28;20048;-76
2022/08/12 14:56:14;;;;;;;9.52;3.00;;;;;;;;;;5031064;28;20049;-77
2022/08/12 15:01:37;;;;;;;11.32;3.85;;;;;;;;;;5030098;28;20064;-77
2022/08/12 15:01:40;;;;;;;6.38;3.00;;;;;;;;;;5019240;28;20111;-76
2022/08/12 15:04:07;;;;;;;5.70;2.50;;;;;;;;;;5048126;28;20051;-77
2022/08/12 15:06:36;;;;;;;5.60;2.55;;;;;;;;;;5031689;28;20036;-76
2022/08/12 15:09:02;;;;;;;7.72;2.53;;;;;;;;;;5047633;28;20048;-77
2022/08/12 15:11:28;;;;;;;6.80;2.60;;;;;;;;;;5031389;28;20037;-77
2022/08/12 15:13:54;;;;;;;7.32;2.83;;;;;;;;;;5049675;28;20064;-77
2022/08/12 15:16:21;;;;;;;6.28;2.38;;;;;;;;;;5032947;28;20490;-77
2022/08/12 15:18:47;;;;;;;5.72;2.58;;;;;;;;;;5047863;28;20053;-78
2022/08/12 15:21:13;;;;;;;6.18;2.72;;;;;;;;;;5031128;28;20375;-77
2022/08/12 15:23:39;;;;;;;7.10;2.97;;;;;;;;;;5028196;28;20080;-76
2022/08/12 15:26:13;;;;;;;6.18;2.70;;;;;;;;;;5017124;28;20582;-78
2022/08/12 15:28:46;;;;;;;6.70;3.08;;;;;;;;;;5019825;28;20406;-76
2022/08/12 15:31:14;;;;;;;6.50;2.72;;;;;;;;;;5025094;28;20033;-76
2022/08/12 15:33:41;;;;;;;6.15;2.40;;;;;;;;;;5025682;28;20049;-76